sensor_id;sensor_type;location;lat;lon;timestamp;temperature;humidity
20416;DHT22;10367;52.202;5.996;2022-12-29T00:00:12;10.40;99.90
20416;DHT22;10367;52.202;5.996;2022-12-29T00:02:41;10.40;99.90
20416;DHT22;10367;52.202;5.996;2022-12-29T00:05:10;10.40;99.90
20416;DHT22;10367;52.202;5.996;2022-12-29T00:07:39;10.40;99.90
20416;DHT22;10367;52.202;5.996;2022-12-29T00:10:08;10.40;99.90
20416;DHT22;10367;52.202;5.996;2022-12-29T00:12:36;10.40;99.90
20416;DHT22;10367;52.202;5.996;2022-12-29T00:15:24;10.40;99.90
20416;DHT22;10367;52.202;5.996;2022-12-29T00:18:08;10.40;99.90
20416;DHT22;10367;52.202;5.996;2022-12-29T00:20:37;10.40;99.90
20416;DHT22;10367;52.202;5.996;2022-12-29T00:23:23;10.40;99.90
20416;DHT22;10367;52.202;5.996;2022-12-29T00:26:13;10.40;99.90
20416;DHT22;10367;52.202;5.996;2022-12-29T00:28:59;10.40;99.90
20416;DHT22;10367;52.202;5.996;2022-12-29T00:31:47;10.40;99.90
20416;DHT22;10367;52.202;5.996;2022-12-29T00:34:33;10.50;99.90
20416;DHT22;10367;52.202;5.996;2022-12-29T00:37:19;10.40;99.90
20416;DHT22;10367;52.202;5.996;2022-12-29T00:40:09;10.50;99.90
20416;DHT22;10367;52.202;5.996;2022-12-29T00:42:55;10.50;99.90
20416;DHT22;10367;52.202;5.996;2022-12-29T00:45:41;10.50;99.90
20416;DHT22;10367;52.202;5.996;2022-12-29T00:48:11;10.50;99.90
20416;DHT22;10367;52.202;5.996;2022-12-29T00:50:40;10.50;99.90
20416;DHT22;10367;52.202;5.996;2022-12-29T00:53:08;10.50;99.90
20416;DHT22;10367;52.202;5.996;2022-12-29T00:55:37;10.50;99.90
20416;DHT22;10367;52.202;5.996;2022-12-29T00:58:05;10.50;99.90
20416;DHT22;10367;52.202;5.996;2022-12-29T01:00:34;10.50;99.90
20416;DHT22;10367;52.202;5.996;2022-12-29T01:03:03;10.50;99.90
20416;DHT22;10367;52.202;5.996;2022-12-29T01:05:37;10.60;99.90
20416;DHT22;10367;52.202;5.996;2022-12-29T01:08:05;10.50;99.90
20416;DHT22;10367;52.202;5.996;2022-12-29T01:10:34;10.50;99.90
20416;DHT22;10367;52.202;5.996;2022-12-29T01:13:02;10.40;99.90
20416;DHT22;10367;52.202;5.996;2022-12-29T01:15:31;10.40;99.90
20416;DHT22;10367;52.202;5.996;2022-12-29T01:18:00;10.40;99.90
20416;DHT22;10367;52.202;5.996;2022-12-29T01:20:28;10.40;99.90
20416;DHT22;10367;52.202;5.996;2022-12-29T01:22:58;10.40;99.90
20416;DHT22;10367;52.202;5.996;2022-12-29T01:25:27;10.40;99.90
20416;DHT22;10367;52.202;5.996;2022-12-29T01:27:56;10.40;99.90
20416;DHT22;10367;52.202;5.996;2022-12-29T01:30:24;10.40;99.90
20416;DHT22;10367;52.202;5.996;2022-12-29T01:32:53;10.50;99.90
20416;DHT22;10367;52.202;5.996;2022-12-29T01:35:22;10.50;99.90
20416;DHT22;10367;52.202;5.996;2022-12-29T01:37:50;10.60;99.90
20416;DHT22;10367;52.202;5.996;2022-12-29T01:40:21;10.60;99.90
20416;DHT22;10367;52.202;5.996;2022-12-29T01:42:49;10.60;99.90
20416;DHT22;10367;52.202;5.996;2022-12-29T01:45:18;10.60;99.90
20416;DHT22;10367;52.202;5.996;2022-12-29T01:47:50;10.60;99.90
20416;DHT22;10367;52.202;5.996;2022-12-29T01:50:28;10.60;99.90
20416;DHT22;10367;52.202;5.996;2022-12-29T01:53:02;10.50;99.90
20416;DHT22;10367;52.202;5.996;2022-12-29T01:55:37;10.50;99.90
20416;DHT22;10367;52.202;5.996;2022-12-29T01:58:09;10.40;99.90
20416;DHT22;10367;52.202;5.996;2022-12-29T02:00:38;10.40;99.90
20416;DHT22;10367;52.202;5.996;2022-12-29T02:03:07;10.40;99.90
20416;DHT22;10367;52.202;5.996;2022-12-29T02:05:41;10.40;99.90
20416;DHT22;10367;52.202;5.996;2022-12-29T02:08:13;10.50;99.90
20416;DHT22;10367;52.202;5.996;2022-12-29T02:10:44;10.50;99.90
20416;DHT22;10367;52.202;5.996;2022-12-29T02:13:15;10.50;99.90
20416;DHT22;10367;52.202;5.996;2022-12-29T02:15:53;10.50;99.90
20416;DHT22;10367;52.202;5.996;2022-12-29T02:18:32;10.50;99.90
20416;DHT22;10367;52.202;5.996;2022-12-29T02:24:22;10.50;99.90
20416;DHT22;10367;52.202;5.996;2022-12-29T02:27:36;10.50;99.90
20416;DHT22;10367;52.202;5.996;2022-12-29T02:30:25;10.40;99.90
20416;DHT22;10367;52.202;5.996;2022-12-29T02:32:58;10.30;99.90
20416;DHT22;10367;52.202;5.996;2022-12-29T02:35:35;10.30;99.90
20416;DHT22;10367;52.202;5.996;2022-12-29T02:38:13;10.30;99.90
20416;DHT22;10367;52.202;5.996;2022-12-29T02:40:48;10.20;99.90
20416;DHT22;10367;52.202;5.996;2022-12-29T02:43:24;10.20;99.90
20416;DHT22;10367;52.202;5.996;2022-12-29T02:45:59;10.20;99.90
20416;DHT22;10367;52.202;5.996;2022-12-29T02:48:32;10.20;99.90
20416;DHT22;10367;52.202;5.996;2022-12-29T02:51:09;10.10;99.90
20416;DHT22;10367;52.202;5.996;2022-12-29T02:53:40;10.20;99.90
20416;DHT22;10367;52.202;5.996;2022-12-29T02:56:27;10.10;99.90
20416;DHT22;10367;52.202;5.996;2022-12-29T02:58:56;10.20;99.90
20416;DHT22;10367;52.202;5.996;2022-12-29T03:01:36;10.30;99.90
20416;DHT22;10367;52.202;5.996;2022-12-29T03:04:37;10.40;99.90
20416;DHT22;10367;52.202;5.996;2022-12-29T03:07:15;10.40;99.90
20416;DHT22;10367;52.202;5.996;2022-12-29T03:09:52;10.40;99.90
20416;DHT22;10367;52.202;5.996;2022-12-29T03:12:29;10.40;99.90
20416;DHT22;10367;52.202;5.996;2022-12-29T03:15:22;10.40;99.90
20416;DHT22;10367;52.202;5.996;2022-12-29T03:18:14;10.40;99.90
20416;DHT22;10367;52.202;5.996;2022-12-29T03:20:49;10.30;99.90
20416;DHT22;10367;52.202;5.996;2022-12-29T03:23:20;10.30;99.90
20416;DHT22;10367;52.202;5.996;2022-12-29T03:25:51;10.20;99.90
20416;DHT22;10367;52.202;5.996;2022-12-29T03:28:24;10.30;99.90
20416;DHT22;10367;52.202;5.996;2022-12-29T03:30:54;10.20;99.90
20416;DHT22;10367;52.202;5.996;2022-12-29T03:33:27;10.10;99.90
20416;DHT22;10367;52.202;5.996;2022-12-29T03:36:00;10.00;99.90
20416;DHT22;10367;52.202;5.996;2022-12-29T03:38:35;10.00;99.90
20416;DHT22;10367;52.202;5.996;2022-12-29T03:41:07;10.00;99.90
20416;DHT22;10367;52.202;5.996;2022-12-29T03:43:37;9.90;99.90
20416;DHT22;10367;52.202;5.996;2022-12-29T03:46:06;9.90;99.90
20416;DHT22;10367;52.202;5.996;2022-12-29T03:48:36;9.90;99.90
20416;DHT22;10367;52.202;5.996;2022-12-29T03:51:05;9.90;99.90
20416;DHT22;10367;52.202;5.996;2022-12-29T03:53:33;10.00;99.90
20416;DHT22;10367;52.202;5.996;2022-12-29T03:56:02;10.00;99.90
20416;DHT22;10367;52.202;5.996;2022-12-29T03:58:31;10.00;99.90
20416;DHT22;10367;52.202;5.996;2022-12-29T04:01:00;10.00;99.90
20416;DHT22;10367;52.202;5.996;2022-12-29T04:03:29;10.00;99.90
20416;DHT22;10367;52.202;5.996;2022-12-29T04:05:59;10.00;99.90
20416;DHT22;10367;52.202;5.996;2022-12-29T04:08:28;9.90;99.90
20416;DHT22;10367;52.202;5.996;2022-12-29T04:10:57;9.90;99.90
20416;DHT22;10367;52.202;5.996;2022-12-29T04:13:25;9.90;99.90
20416;DHT22;10367;52.202;5.996;2022-12-29T04:15:54;9.90;99.90
20416;DHT22;10367;52.202;5.996;2022-12-29T04:18:23;9.90;99.90
20416;DHT22;10367;52.202;5.996;2022-12-29T04:20:52;10.00;99.90
20416;DHT22;10367;52.202;5.996;2022-12-29T04:23:33;10.00;99.90
20416;DHT22;10367;52.202;5.996;2022-12-29T04:26:03;10.00;99.90
20416;DHT22;10367;52.202;5.996;2022-12-29T04:28:33;10.00;99.90
20416;DHT22;10367;52.202;5.996;2022-12-29T04:31:03;10.00;99.90
20416;DHT22;10367;52.202;5.996;2022-12-29T04:33:32;10.00;99.90
20416;DHT22;10367;52.202;5.996;2022-12-29T04:36:00;10.00;99.90
20416;DHT22;10367;52.202;5.996;2022-12-29T04:38:29;10.10;99.90
20416;DHT22;10367;52.202;5.996;2022-12-29T04:41:01;10.00;99.90
20416;DHT22;10367;52.202;5.996;2022-12-29T04:43:30;10.00;99.90
20416;DHT22;10367;52.202;5.996;2022-12-29T04:45:58;10.10;99.90
20416;DHT22;10367;52.202;5.996;2022-12-29T04:48:27;10.10;99.90
20416;DHT22;10367;52.202;5.996;2022-12-29T04:50:56;10.20;99.90
20416;DHT22;10367;52.202;5.996;2022-12-29T04:53:24;10.20;99.90
20416;DHT22;10367;52.202;5.996;2022-12-29T04:55:53;10.30;99.90
20416;DHT22;10367;52.202;5.996;2022-12-29T04:58:24;10.30;99.90
20416;DHT22;10367;52.202;5.996;2022-12-29T05:00:53;10.30;99.90
20416;DHT22;10367;52.202;5.996;2022-12-29T05:03:22;10.30;99.90
20416;DHT22;10367;52.202;5.996;2022-12-29T05:05:53;10.20;99.90
20416;DHT22;10367;52.202;5.996;2022-12-29T05:08:22;10.10;99.90
20416;DHT22;10367;52.202;5.996;2022-12-29T05:10:54;10.10;99.90
20416;DHT22;10367;52.202;5.996;2022-12-29T05:13:24;10.10;99.90
20416;DHT22;10367;52.202;5.996;2022-12-29T05:15:53;10.10;99.90
20416;DHT22;10367;52.202;5.996;2022-12-29T05:18:22;10.10;99.90
20416;DHT22;10367;52.202;5.996;2022-12-29T05:20:51;10.10;99.90
20416;DHT22;10367;52.202;5.996;2022-12-29T05:23:20;10.10;99.90
20416;DHT22;10367;52.202;5.996;2022-12-29T05:25:48;10.00;99.90
20416;DHT22;10367;52.202;5.996;2022-12-29T05:28:18;10.00;99.90
20416;DHT22;10367;52.202;5.996;2022-12-29T05:30:49;10.00;99.90
20416;DHT22;10367;52.202;5.996;2022-12-29T05:33:19;10.00;99.90
20416;DHT22;10367;52.202;5.996;2022-12-29T05:35:47;10.10;99.90
20416;DHT22;10367;52.202;5.996;2022-12-29T05:38:16;10.20;99.90
20416;DHT22;10367;52.202;5.996;2022-12-29T05:40:45;10.20;99.90
20416;DHT22;10367;52.202;5.996;2022-12-29T05:43:13;10.20;99.90
20416;DHT22;10367;52.202;5.996;2022-12-29T05:45:42;10.10;99.90
20416;DHT22;10367;52.202;5.996;2022-12-29T05:48:12;10.00;99.90
20416;DHT22;10367;52.202;5.996;2022-12-29T05:50:41;9.90;99.90
20416;DHT22;10367;52.202;5.996;2022-12-29T05:53:10;9.90;99.90
20416;DHT22;10367;52.202;5.996;2022-12-29T05:55:38;9.80;99.90
20416;DHT22;10367;52.202;5.996;2022-12-29T05:58:14;9.80;99.90
20416;DHT22;10367;52.202;5.996;2022-12-29T06:00:44;9.80;99.90
20416;DHT22;10367;52.202;5.996;2022-12-29T06:03:14;9.80;99.90
20416;DHT22;10367;52.202;5.996;2022-12-29T06:05:44;9.80;99.90
20416;DHT22;10367;52.202;5.996;2022-12-29T06:08:13;9.90;99.90
20416;DHT22;10367;52.202;5.996;2022-12-29T06:10:42;9.80;99.90
20416;DHT22;10367;52.202;5.996;2022-12-29T06:13:10;9.90;99.90
20416;DHT22;10367;52.202;5.996;2022-12-29T06:15:39;9.80;99.90
20416;DHT22;10367;52.202;5.996;2022-12-29T06:18:08;9.80;99.90
20416;DHT22;10367;52.202;5.996;2022-12-29T06:20:47;9.80;99.90
20416;DHT22;10367;52.202;5.996;2022-12-29T06:23:16;9.80;99.90
20416;DHT22;10367;52.202;5.996;2022-12-29T06:25:47;9.80;99.90
20416;DHT22;10367;52.202;5.996;2022-12-29T06:28:16;9.80;99.90
20416;DHT22;10367;52.202;5.996;2022-12-29T06:30:45;9.80;99.90
20416;DHT22;10367;52.202;5.996;2022-12-29T06:33:15;9.80;99.90
20416;DHT22;10367;52.202;5.996;2022-12-29T06:35:46;9.70;99.90
20416;DHT22;10367;52.202;5.996;2022-12-29T06:38:15;9.70;99.90
20416;DHT22;10367;52.202;5.996;2022-12-29T06:40:44;9.70;99.90
20416;DHT22;10367;52.202;5.996;2022-12-29T06:43:13;9.70;99.90
20416;DHT22;10367;52.202;5.996;2022-12-29T06:45:42;9.70;99.90
20416;DHT22;10367;52.202;5.996;2022-12-29T06:48:10;9.60;99.90
20416;DHT22;10367;52.202;5.996;2022-12-29T06:50:39;9.60;99.90
20416;DHT22;10367;52.202;5.996;2022-12-29T06:53:09;9.60;99.90
20416;DHT22;10367;52.202;5.996;2022-12-29T06:55:38;9.60;99.90
20416;DHT22;10367;52.202;5.996;2022-12-29T06:58:06;9.50;99.90
20416;DHT22;10367;52.202;5.996;2022-12-29T07:00:35;9.50;99.90
20416;DHT22;10367;52.202;5.996;2022-12-29T07:03:04;9.50;99.90
20416;DHT22;10367;52.202;5.996;2022-12-29T07:05:33;9.40;99.90
20416;DHT22;10367;52.202;5.996;2022-12-29T07:08:02;9.40;99.90
20416;DHT22;10367;52.202;5.996;2022-12-29T07:10:32;9.40;99.90
20416;DHT22;10367;52.202;5.996;2022-12-29T07:13:01;9.40;99.90
20416;DHT22;10367;52.202;5.996;2022-12-29T07:15:29;9.30;99.90
20416;DHT22;10367;52.202;5.996;2022-12-29T07:17:58;9.30;99.90
20416;DHT22;10367;52.202;5.996;2022-12-29T07:20:26;9.30;99.90
20416;DHT22;10367;52.202;5.996;2022-12-29T07:22:55;9.30;99.90
20416;DHT22;10367;52.202;5.996;2022-12-29T07:25:24;9.30;99.90
20416;DHT22;10367;52.202;5.996;2022-12-29T07:27:54;9.30;99.90
20416;DHT22;10367;52.202;5.996;2022-12-29T07:30:23;9.30;99.90
20416;DHT22;10367;52.202;5.996;2022-12-29T07:32:51;9.40;99.90
20416;DHT22;10367;52.202;5.996;2022-12-29T07:35:20;9.30;99.90
20416;DHT22;10367;52.202;5.996;2022-12-29T07:37:49;9.30;99.90
20416;DHT22;10367;52.202;5.996;2022-12-29T07:40:17;9.20;99.90
20416;DHT22;10367;52.202;5.996;2022-12-29T07:42:46;9.10;99.90
20416;DHT22;10367;52.202;5.996;2022-12-29T07:45:16;9.00;99.90
20416;DHT22;10367;52.202;5.996;2022-12-29T07:47:47;8.90;99.90
20416;DHT22;10367;52.202;5.996;2022-12-29T07:50:16;8.80;99.90
20416;DHT22;10367;52.202;5.996;2022-12-29T07:52:45;8.60;99.90
20416;DHT22;10367;52.202;5.996;2022-12-29T07:55:15;8.50;99.90
20416;DHT22;10367;52.202;5.996;2022-12-29T07:57:43;8.40;99.90
20416;DHT22;10367;52.202;5.996;2022-12-29T08:00:13;8.30;99.90
20416;DHT22;10367;52.202;5.996;2022-12-29T08:02:43;8.20;99.90
20416;DHT22;10367;52.202;5.996;2022-12-29T08:05:12;8.20;99.90
20416;DHT22;10367;52.202;5.996;2022-12-29T08:07:43;8.20;99.90
20416;DHT22;10367;52.202;5.996;2022-12-29T08:10:12;8.20;99.90
20416;DHT22;10367;52.202;5.996;2022-12-29T08:12:42;8.20;99.90
20416;DHT22;10367;52.202;5.996;2022-12-29T08:15:11;8.20;99.90
20416;DHT22;10367;52.202;5.996;2022-12-29T08:17:40;8.20;99.90
20416;DHT22;10367;52.202;5.996;2022-12-29T08:20:11;8.30;99.90
20416;DHT22;10367;52.202;5.996;2022-12-29T08:22:40;8.30;99.90
20416;DHT22;10367;52.202;5.996;2022-12-29T08:25:08;8.50;99.90
20416;DHT22;10367;52.202;5.996;2022-12-29T08:27:37;8.50;99.90
20416;DHT22;10367;52.202;5.996;2022-12-29T08:30:07;8.60;99.90
20416;DHT22;10367;52.202;5.996;2022-12-29T08:32:36;8.60;99.90
20416;DHT22;10367;52.202;5.996;2022-12-29T08:35:05;8.60;99.90
20416;DHT22;10367;52.202;5.996;2022-12-29T08:37:35;8.60;99.90
20416;DHT22;10367;52.202;5.996;2022-12-29T08:40:05;8.70;99.90
20416;DHT22;10367;52.202;5.996;2022-12-29T08:42:35;8.70;99.90
20416;DHT22;10367;52.202;5.996;2022-12-29T08:45:04;8.70;99.90
20416;DHT22;10367;52.202;5.996;2022-12-29T08:47:33;8.70;99.90
20416;DHT22;10367;52.202;5.996;2022-12-29T08:50:02;8.70;99.90
20416;DHT22;10367;52.202;5.996;2022-12-29T08:52:31;8.70;99.90
20416;DHT22;10367;52.202;5.996;2022-12-29T08:55:01;8.80;99.90
20416;DHT22;10367;52.202;5.996;2022-12-29T08:57:29;8.80;99.90
20416;DHT22;10367;52.202;5.996;2022-12-29T08:59:58;8.90;99.90
20416;DHT22;10367;52.202;5.996;2022-12-29T09:02:27;8.90;99.90
20416;DHT22;10367;52.202;5.996;2022-12-29T09:04:56;9.00;99.90
20416;DHT22;10367;52.202;5.996;2022-12-29T09:07:26;9.00;99.90
20416;DHT22;10367;52.202;5.996;2022-12-29T09:09:55;9.10;99.90
20416;DHT22;10367;52.202;5.996;2022-12-29T09:12:25;9.20;99.90
20416;DHT22;10367;52.202;5.996;2022-12-29T09:15:02;9.30;99.90
20416;DHT22;10367;52.202;5.996;2022-12-29T09:17:31;9.40;99.90
20416;DHT22;10367;52.202;5.996;2022-12-29T09:20:14;9.40;99.90
20416;DHT22;10367;52.202;5.996;2022-12-29T09:22:44;9.30;99.90
20416;DHT22;10367;52.202;5.996;2022-12-29T09:25:13;9.30;99.90
20416;DHT22;10367;52.202;5.996;2022-12-29T09:27:43;9.30;99.90
20416;DHT22;10367;52.202;5.996;2022-12-29T09:30:13;9.30;99.90
20416;DHT22;10367;52.202;5.996;2022-12-29T09:32:41;9.30;99.90
20416;DHT22;10367;52.202;5.996;2022-12-29T09:35:13;9.30;99.90
20416;DHT22;10367;52.202;5.996;2022-12-29T09:37:42;9.40;99.90
20416;DHT22;10367;52.202;5.996;2022-12-29T09:40:25;9.40;99.90
20416;DHT22;10367;52.202;5.996;2022-12-29T09:43:17;9.40;99.90
20416;DHT22;10367;52.202;5.996;2022-12-29T09:45:55;9.40;99.90
20416;DHT22;10367;52.202;5.996;2022-12-29T09:48:30;9.40;99.90
20416;DHT22;10367;52.202;5.996;2022-12-29T09:51:03;9.50;99.90
20416;DHT22;10367;52.202;5.996;2022-12-29T09:53:36;9.50;99.90
20416;DHT22;10367;52.202;5.996;2022-12-29T09:56:13;9.50;99.90
20416;DHT22;10367;52.202;5.996;2022-12-29T09:58:50;9.60;99.90
20416;DHT22;10367;52.202;5.996;2022-12-29T10:01:26;9.60;99.90
20416;DHT22;10367;52.202;5.996;2022-12-29T10:03:57;9.50;99.90
20416;DHT22;10367;52.202;5.996;2022-12-29T10:06:32;9.50;99.90
20416;DHT22;10367;52.202;5.996;2022-12-29T10:09:26;9.50;99.90
20416;DHT22;10367;52.202;5.996;2022-12-29T10:12:07;9.50;99.90
20416;DHT22;10367;52.202;5.996;2022-12-29T10:14:49;9.40;99.90
20416;DHT22;10367;52.202;5.996;2022-12-29T10:17:27;9.40;99.90
20416;DHT22;10367;52.202;5.996;2022-12-29T10:20:17;9.30;99.90
20416;DHT22;10367;52.202;5.996;2022-12-29T10:23:01;9.20;99.90
20416;DHT22;10367;52.202;5.996;2022-12-29T10:25:37;9.20;99.90
20416;DHT22;10367;52.202;5.996;2022-12-29T10:28:13;9.30;99.90
20416;DHT22;10367;52.202;5.996;2022-12-29T10:30:46;9.30;99.90
20416;DHT22;10367;52.202;5.996;2022-12-29T10:33:18;9.30;99.90
20416;DHT22;10367;52.202;5.996;2022-12-29T10:35:48;9.40;99.90
20416;DHT22;10367;52.202;5.996;2022-12-29T10:38:22;9.50;99.90
20416;DHT22;10367;52.202;5.996;2022-12-29T10:40:57;9.60;99.90
20416;DHT22;10367;52.202;5.996;2022-12-29T10:43:28;9.70;99.90
20416;DHT22;10367;52.202;5.996;2022-12-29T10:46:01;9.70;99.90
20416;DHT22;10367;52.202;5.996;2022-12-29T10:48:32;9.80;99.90
20416;DHT22;10367;52.202;5.996;2022-12-29T10:51:02;9.70;99.90
20416;DHT22;10367;52.202;5.996;2022-12-29T10:53:37;9.60;99.90
20416;DHT22;10367;52.202;5.996;2022-12-29T10:56:28;9.50;99.90
20416;DHT22;10367;52.202;5.996;2022-12-29T10:59:01;9.40;99.90
20416;DHT22;10367;52.202;5.996;2022-12-29T11:01:42;9.40;99.90
20416;DHT22;10367;52.202;5.996;2022-12-29T11:04:27;9.30;99.90
20416;DHT22;10367;52.202;5.996;2022-12-29T11:06:58;9.30;99.90
20416;DHT22;10367;52.202;5.996;2022-12-29T11:09:30;9.30;99.90
20416;DHT22;10367;52.202;5.996;2022-12-29T11:12:20;9.30;99.90
20416;DHT22;10367;52.202;5.996;2022-12-29T11:15:02;9.30;99.90
20416;DHT22;10367;52.202;5.996;2022-12-29T11:17:43;9.40;99.90
20416;DHT22;10367;52.202;5.996;2022-12-29T11:20:33;9.40;99.90
20416;DHT22;10367;52.202;5.996;2022-12-29T11:23:04;9.50;99.90
20416;DHT22;10367;52.202;5.996;2022-12-29T11:25:34;9.60;99.90
20416;DHT22;10367;52.202;5.996;2022-12-29T11:28:13;9.70;99.90
20416;DHT22;10367;52.202;5.996;2022-12-29T11:30:43;9.70;99.90
20416;DHT22;10367;52.202;5.996;2022-12-29T11:33:13;9.80;99.90
20416;DHT22;10367;52.202;5.996;2022-12-29T11:35:43;9.70;99.90
20416;DHT22;10367;52.202;5.996;2022-12-29T11:38:20;9.70;99.90
20416;DHT22;10367;52.202;5.996;2022-12-29T11:40:49;9.70;99.90
20416;DHT22;10367;52.202;5.996;2022-12-29T11:46:46;9.70;99.90
20416;DHT22;10367;52.202;5.996;2022-12-29T11:49:21;9.60;99.90
20416;DHT22;10367;52.202;5.996;2022-12-29T11:51:52;9.60;99.90
20416;DHT22;10367;52.202;5.996;2022-12-29T11:54:26;9.50;99.90
20416;DHT22;10367;52.202;5.996;2022-12-29T11:56:58;9.50;99.90
20416;DHT22;10367;52.202;5.996;2022-12-29T11:59:40;9.30;99.90
20416;DHT22;10367;52.202;5.996;2022-12-29T12:05:20;9.30;99.90
20416;DHT22;10367;52.202;5.996;2022-12-29T12:07:54;9.30;99.90
20416;DHT22;10367;52.202;5.996;2022-12-29T12:10:28;9.30;99.90
20416;DHT22;10367;52.202;5.996;2022-12-29T12:13:03;9.20;99.90
20416;DHT22;10367;52.202;5.996;2022-12-29T12:15:37;9.10;99.90
20416;DHT22;10367;52.202;5.996;2022-12-29T12:18:19;9.00;99.90
20416;DHT22;10367;52.202;5.996;2022-12-29T12:20:54;8.90;99.90
20416;DHT22;10367;52.202;5.996;2022-12-29T12:23:30;8.90;99.90
20416;DHT22;10367;52.202;5.996;2022-12-29T12:26:05;8.90;99.90
20416;DHT22;10367;52.202;5.996;2022-12-29T12:28:43;8.90;99.90
20416;DHT22;10367;52.202;5.996;2022-12-29T12:31:19;9.00;99.90
20416;DHT22;10367;52.202;5.996;2022-12-29T12:33:54;9.00;99.90
20416;DHT22;10367;52.202;5.996;2022-12-29T12:39:33;9.10;99.90
20416;DHT22;10367;52.202;5.996;2022-12-29T12:42:15;9.40;99.90
20416;DHT22;10367;52.202;5.996;2022-12-29T12:44:54;9.60;99.90
20416;DHT22;10367;52.202;5.996;2022-12-29T12:47:39;9.70;99.90
20416;DHT22;10367;52.202;5.996;2022-12-29T12:50:25;9.70;99.90
20416;DHT22;10367;52.202;5.996;2022-12-29T12:53:19;9.70;99.90
20416;DHT22;10367;52.202;5.996;2022-12-29T12:56:00;9.80;99.90
20416;DHT22;10367;52.202;5.996;2022-12-29T12:58:38;9.80;99.90
20416;DHT22;10367;52.202;5.996;2022-12-29T13:01:22;9.80;99.90
20416;DHT22;10367;52.202;5.996;2022-12-29T13:04:20;9.70;99.90
20416;DHT22;10367;52.202;5.996;2022-12-29T13:07:01;9.70;99.90
20416;DHT22;10367;52.202;5.996;2022-12-29T13:09:43;9.70;99.90
20416;DHT22;10367;52.202;5.996;2022-12-29T13:12:20;9.80;99.90
20416;DHT22;10367;52.202;5.996;2022-12-29T13:15:03;9.80;99.90
20416;DHT22;10367;52.202;5.996;2022-12-29T13:17:40;9.80;99.90
20416;DHT22;10367;52.202;5.996;2022-12-29T13:20:20;9.70;99.90
20416;DHT22;10367;52.202;5.996;2022-12-29T13:22:57;9.70;99.90
20416;DHT22;10367;52.202;5.996;2022-12-29T13:25:35;9.70;99.90
20416;DHT22;10367;52.202;5.996;2022-12-29T13:28:11;9.60;99.90
20416;DHT22;10367;52.202;5.996;2022-12-29T13:30:48;9.60;99.90
20416;DHT22;10367;52.202;5.996;2022-12-29T13:33:26;9.60;99.90
20416;DHT22;10367;52.202;5.996;2022-12-29T13:36:02;9.60;99.90
20416;DHT22;10367;52.202;5.996;2022-12-29T13:38:35;9.60;99.90
20416;DHT22;10367;52.202;5.996;2022-12-29T13:41:08;9.60;99.90
20416;DHT22;10367;52.202;5.996;2022-12-29T13:43:40;9.60;99.90
20416;DHT22;10367;52.202;5.996;2022-12-29T13:46:12;9.60;99.90
20416;DHT22;10367;52.202;5.996;2022-12-29T13:48:46;9.60;99.90
20416;DHT22;10367;52.202;5.996;2022-12-29T13:51:17;9.60;99.90
20416;DHT22;10367;52.202;5.996;2022-12-29T13:54:17;9.60;99.90
20416;DHT22;10367;52.202;5.996;2022-12-29T13:56:52;9.60;99.90
20416;DHT22;10367;52.202;5.996;2022-12-29T13:59:30;9.60;99.90
20416;DHT22;10367;52.202;5.996;2022-12-29T14:02:17;9.50;99.90
20416;DHT22;10367;52.202;5.996;2022-12-29T14:04:58;9.50;99.90
20416;DHT22;10367;52.202;5.996;2022-12-29T14:07:28;9.30;99.90
20416;DHT22;10367;52.202;5.996;2022-12-29T14:09:57;9.20;99.90
20416;DHT22;10367;52.202;5.996;2022-12-29T14:12:32;9.10;99.90
20416;DHT22;10367;52.202;5.996;2022-12-29T14:15:19;9.10;99.90
20416;DHT22;10367;52.202;5.996;2022-12-29T14:18:19;9.10;99.90
20416;DHT22;10367;52.202;5.996;2022-12-29T14:20:53;9.10;99.90
20416;DHT22;10367;52.202;5.996;2022-12-29T14:23:36;9.10;99.90
20416;DHT22;10367;52.202;5.996;2022-12-29T14:26:14;9.10;99.90
20416;DHT22;10367;52.202;5.996;2022-12-29T14:28:45;9.00;99.90
20416;DHT22;10367;52.202;5.996;2022-12-29T14:31:34;9.00;99.90
20416;DHT22;10367;52.202;5.996;2022-12-29T14:34:28;9.00;99.90
20416;DHT22;10367;52.202;5.996;2022-12-29T14:36:59;9.00;99.90
20416;DHT22;10367;52.202;5.996;2022-12-29T14:39:37;9.00;99.90
20416;DHT22;10367;52.202;5.996;2022-12-29T14:42:11;9.00;99.90
20416;DHT22;10367;52.202;5.996;2022-12-29T14:44:49;9.00;99.90
20416;DHT22;10367;52.202;5.996;2022-12-29T14:47:20;9.10;99.90
20416;DHT22;10367;52.202;5.996;2022-12-29T14:49:51;9.00;99.90
20416;DHT22;10367;52.202;5.996;2022-12-29T14:52:23;9.00;99.90
20416;DHT22;10367;52.202;5.996;2022-12-29T14:54:54;9.00;99.90
20416;DHT22;10367;52.202;5.996;2022-12-29T14:57:31;9.00;99.90
20416;DHT22;10367;52.202;5.996;2022-12-29T15:00:18;8.90;99.90
20416;DHT22;10367;52.202;5.996;2022-12-29T15:02:50;8.90;99.90
20416;DHT22;10367;52.202;5.996;2022-12-29T15:05:28;8.80;99.90
20416;DHT22;10367;52.202;5.996;2022-12-29T15:07:59;8.80;99.90
20416;DHT22;10367;52.202;5.996;2022-12-29T15:10:35;8.70;99.90
20416;DHT22;10367;52.202;5.996;2022-12-29T15:13:14;8.70;99.90
20416;DHT22;10367;52.202;5.996;2022-12-29T15:15:45;8.60;99.90
20416;DHT22;10367;52.202;5.996;2022-12-29T15:18:21;8.50;99.90
20416;DHT22;10367;52.202;5.996;2022-12-29T15:20:53;8.40;99.90
20416;DHT22;10367;52.202;5.996;2022-12-29T15:23:22;8.40;99.90
20416;DHT22;10367;52.202;5.996;2022-12-29T15:25:54;8.30;99.90
20416;DHT22;10367;52.202;5.996;2022-12-29T15:28:24;8.30;99.90
20416;DHT22;10367;52.202;5.996;2022-12-29T15:30:56;8.30;99.90
20416;DHT22;10367;52.202;5.996;2022-12-29T15:33:26;8.30;99.90
20416;DHT22;10367;52.202;5.996;2022-12-29T15:35:57;8.30;99.90
20416;DHT22;10367;52.202;5.996;2022-12-29T15:38:31;8.30;99.90
20416;DHT22;10367;52.202;5.996;2022-12-29T15:41:13;8.30;99.90
20416;DHT22;10367;52.202;5.996;2022-12-29T15:43:52;8.30;99.90
20416;DHT22;10367;52.202;5.996;2022-12-29T15:46:23;8.30;99.90
20416;DHT22;10367;52.202;5.996;2022-12-29T15:48:52;8.30;99.90
20416;DHT22;10367;52.202;5.996;2022-12-29T15:51:28;8.30;99.90
20416;DHT22;10367;52.202;5.996;2022-12-29T15:53:58;8.30;99.90
20416;DHT22;10367;52.202;5.996;2022-12-29T15:56:29;8.20;99.90
20416;DHT22;10367;52.202;5.996;2022-12-29T15:58:59;8.30;99.90
20416;DHT22;10367;52.202;5.996;2022-12-29T16:01:31;8.20;99.90
20416;DHT22;10367;52.202;5.996;2022-12-29T16:04:04;8.20;99.90
20416;DHT22;10367;52.202;5.996;2022-12-29T16:06:35;8.30;99.90
20416;DHT22;10367;52.202;5.996;2022-12-29T16:09:06;8.30;99.90
20416;DHT22;10367;52.202;5.996;2022-12-29T16:11:37;8.30;99.90
20416;DHT22;10367;52.202;5.996;2022-12-29T16:14:09;8.40;99.90
20416;DHT22;10367;52.202;5.996;2022-12-29T16:16:42;8.40;99.90
20416;DHT22;10367;52.202;5.996;2022-12-29T16:19:18;8.40;99.90
20416;DHT22;10367;52.202;5.996;2022-12-29T16:21:48;8.40;99.90
20416;DHT22;10367;52.202;5.996;2022-12-29T16:24:18;8.40;99.90
20416;DHT22;10367;52.202;5.996;2022-12-29T16:26:49;8.50;99.90
20416;DHT22;10367;52.202;5.996;2022-12-29T16:29:19;8.50;99.90
20416;DHT22;10367;52.202;5.996;2022-12-29T16:31:53;8.50;99.90